sensor_id;sensor_type;location;lat;lon;timestamp;P1;durP1;ratioP1;P2;durP2;ratioP2
7375;SDS011;3728;42.266;24.944;2022-11-12T00:00:16;4.27;;;3.33;;
7375;SDS011;3728;42.266;24.944;2022-11-12T00:03:02;4.03;;;3.67;;
7375;SDS011;3728;42.266;24.944;2022-11-12T00:05:48;4.43;;;3.27;;
7375;SDS011;3728;42.266;24.944;2022-11-12T00:08:35;3.67;;;3.30;;
7375;SDS011;3728;42.266;24.944;2022-11-12T00:11:21;3.93;;;3.37;;
7375;SDS011;3728;42.266;24.944;2022-11-12T00:14:07;7.63;;;4.10;;
7375;SDS011;3728;42.266;24.944;2022-11-12T00:16:53;5.30;;;4.10;;
7375;SDS011;3728;42.266;24.944;2022-11-12T00:19:39;8.73;;;4.47;;
7375;SDS011;3728;42.266;24.944;2022-11-12T00:22:25;4.83;;;4.33;;
7375;SDS011;3728;42.266;24.944;2022-11-12T00:25:11;5.30;;;4.50;;
7375;SDS011;3728;42.266;24.944;2022-11-12T00:28:04;6.50;;;4.13;;
7375;SDS011;3728;42.266;24.944;2022-11-12T00:30:53;6.37;;;4.03;;
7375;SDS011;3728;42.266;24.944;2022-11-12T00:33:39;5.23;;;3.90;;
7375;SDS011;3728;42.266;24.944;2022-11-12T00:36:27;4.90;;;3.80;;
7375;SDS011;3728;42.266;24.944;2022-11-12T00:39:13;6.53;;;4.63;;
7375;SDS011;3728;42.266;24.944;2022-11-12T00:42:00;4.77;;;4.27;;
7375;SDS011;3728;42.266;24.944;2022-11-12T00:44:46;5.57;;;4.10;;
7375;SDS011;3728;42.266;24.944;2022-11-12T00:47:33;6.53;;;4.17;;
7375;SDS011;3728;42.266;24.944;2022-11-12T00:50:19;5.33;;;4.17;;
7375;SDS011;3728;42.266;24.944;2022-11-12T00:53:07;4.97;;;4.40;;
7375;SDS011;3728;42.266;24.944;2022-11-12T00:55:54;7.07;;;4.83;;
7375;SDS011;3728;42.266;24.944;2022-11-12T00:58:46;4.47;;;4.03;;
7375;SDS011;3728;42.266;24.944;2022-11-12T01:01:32;4.97;;;4.17;;
7375;SDS011;3728;42.266;24.944;2022-11-12T01:04:17;5.67;;;4.77;;
7375;SDS011;3728;42.266;24.944;2022-11-12T01:07:03;5.17;;;4.50;;
7375;SDS011;3728;42.266;24.944;2022-11-12T01:09:50;5.07;;;4.57;;
7375;SDS011;3728;42.266;24.944;2022-11-12T01:12:36;5.23;;;4.57;;
7375;SDS011;3728;42.266;24.944;2022-11-12T01:15:22;4.90;;;4.40;;
7375;SDS011;3728;42.266;24.944;2022-11-12T01:18:08;6.33;;;4.67;;
7375;SDS011;3728;42.266;24.944;2022-11-12T01:20:57;5.33;;;4.60;;
7375;SDS011;3728;42.266;24.944;2022-11-12T01:23:48;5.70;;;4.83;;
7375;SDS011;3728;42.266;24.944;2022-11-12T01:26:35;5.70;;;4.97;;
7375;SDS011;3728;42.266;24.944;2022-11-12T01:29:21;5.17;;;4.67;;
7375;SDS011;3728;42.266;24.944;2022-11-12T01:32:07;6.23;;;4.83;;
7375;SDS011;3728;42.266;24.944;2022-11-12T01:34:53;8.70;;;5.33;;
7375;SDS011;3728;42.266;24.944;2022-11-12T01:37:40;6.10;;;5.40;;
7375;SDS011;3728;42.266;24.944;2022-11-12T01:40:26;7.20;;;5.77;;
7375;SDS011;3728;42.266;24.944;2022-11-12T01:43:12;5.60;;;4.93;;
7375;SDS011;3728;42.266;24.944;2022-11-12T01:45:58;6.23;;;5.40;;
7375;SDS011;3728;42.266;24.944;2022-11-12T01:48:53;6.93;;;5.90;;
7375;SDS011;3728;42.266;24.944;2022-11-12T01:51:45;7.83;;;5.90;;
7375;SDS011;3728;42.266;24.944;2022-11-12T01:54:34;11.70;;;7.40;;
7375;SDS011;3728;42.266;24.944;2022-11-12T01:57:29;10.50;;;8.57;;
7375;SDS011;3728;42.266;24.944;2022-11-12T02:00:40;11.93;;;10.50;;
7375;SDS011;3728;42.266;24.944;2022-11-12T02:03:27;12.63;;;11.33;;
7375;SDS011;3728;42.266;24.944;2022-11-12T02:06:13;13.07;;;10.80;;
7375;SDS011;3728;42.266;24.944;2022-11-12T02:09:01;11.30;;;10.10;;
7375;SDS011;3728;42.266;24.944;2022-11-12T02:11:47;12.57;;;11.10;;
7375;SDS011;3728;42.266;24.944;2022-11-12T02:14:33;9.30;;;8.40;;
7375;SDS011;3728;42.266;24.944;2022-11-12T02:17:19;9.50;;;7.43;;
7375;SDS011;3728;42.266;24.944;2022-11-12T02:20:09;8.60;;;6.60;;
7375;SDS011;3728;42.266;24.944;2022-11-12T02:22:57;9.90;;;6.53;;
7375;SDS011;3728;42.266;24.944;2022-11-12T02:25:43;7.23;;;5.87;;
7375;SDS011;3728;42.266;24.944;2022-11-12T02:28:29;6.60;;;5.57;;
7375;SDS011;3728;42.266;24.944;2022-11-12T02:31:17;7.23;;;5.87;;
7375;SDS011;3728;42.266;24.944;2022-11-12T02:34:03;6.67;;;5.97;;
7375;SDS011;3728;42.266;24.944;2022-11-12T02:36:53;10.93;;;5.90;;
7375;SDS011;3728;42.266;24.944;2022-11-12T02:39:38;8.90;;;5.97;;
7375;SDS011;3728;42.266;24.944;2022-11-12T02:42:24;7.00;;;5.90;;
7375;SDS011;3728;42.266;24.944;2022-11-12T02:45:10;6.83;;;5.80;;
7375;SDS011;3728;42.266;24.944;2022-11-12T02:47:56;6.90;;;6.20;;
7375;SDS011;3728;42.266;24.944;2022-11-12T02:50:42;8.33;;;6.47;;
7375;SDS011;3728;42.266;24.944;2022-11-12T02:53:29;9.37;;;6.53;;
7375;SDS011;3728;42.266;24.944;2022-11-12T02:56:16;11.87;;;6.80;;
7375;SDS011;3728;42.266;24.944;2022-11-12T02:59:02;12.93;;;6.43;;
7375;SDS011;3728;42.266;24.944;2022-11-12T03:01:48;11.40;;;7.17;;
7375;SDS011;3728;42.266;24.944;2022-11-12T03:04:35;8.63;;;6.27;;
7375;SDS011;3728;42.266;24.944;2022-11-12T03:07:21;8.53;;;6.40;;
7375;SDS011;3728;42.266;24.944;2022-11-12T03:10:07;8.77;;;6.00;;
7375;SDS011;3728;42.266;24.944;2022-11-12T03:12:55;5.90;;;5.27;;
7375;SDS011;3728;42.266;24.944;2022-11-12T03:15:42;7.13;;;5.50;;
7375;SDS011;3728;42.266;24.944;2022-11-12T03:18:29;7.80;;;5.67;;
7375;SDS011;3728;42.266;24.944;2022-11-12T03:21:14;6.33;;;5.50;;
7375;SDS011;3728;42.266;24.944;2022-11-12T03:24:01;5.93;;;5.33;;
7375;SDS011;3728;42.266;24.944;2022-11-12T03:26:47;6.37;;;5.60;;
7375;SDS011;3728;42.266;24.944;2022-11-12T03:29:33;7.13;;;5.63;;
7375;SDS011;3728;42.266;24.944;2022-11-12T03:32:19;5.63;;;5.00;;
7375;SDS011;3728;42.266;24.944;2022-11-12T03:35:06;7.13;;;5.27;;
7375;SDS011;3728;42.266;24.944;2022-11-12T03:37:52;5.10;;;4.60;;
7375;SDS011;3728;42.266;24.944;2022-11-12T03:40:38;6.47;;;4.60;;
7375;SDS011;3728;42.266;24.944;2022-11-12T03:43:24;5.17;;;4.23;;
7375;SDS011;3728;42.266;24.944;2022-11-12T03:46:11;6.10;;;5.07;;
7375;SDS011;3728;42.266;24.944;2022-11-12T03:48:57;4.97;;;4.47;;
7375;SDS011;3728;42.266;24.944;2022-11-12T03:51:43;6.13;;;5.10;;
7375;SDS011;3728;42.266;24.944;2022-11-12T03:54:31;4.67;;;4.27;;
7375;SDS011;3728;42.266;24.944;2022-11-12T03:57:17;6.00;;;5.17;;
7375;SDS011;3728;42.266;24.944;2022-11-12T04:00:04;5.83;;;5.20;;
7375;SDS011;3728;42.266;24.944;2022-11-12T04:02:52;6.27;;;5.50;;
7375;SDS011;3728;42.266;24.944;2022-11-12T04:05:38;8.87;;;5.50;;
7375;SDS011;3728;42.266;24.944;2022-11-12T04:08:42;9.90;;;6.00;;
7375;SDS011;3728;42.266;24.944;2022-11-12T04:11:31;7.63;;;5.57;;
7375;SDS011;3728;42.266;24.944;2022-11-12T04:14:17;8.87;;;5.13;;
7375;SDS011;3728;42.266;24.944;2022-11-12T04:17:03;5.97;;;5.33;;
7375;SDS011;3728;42.266;24.944;2022-11-12T04:20:08;9.03;;;7.07;;
7375;SDS011;3728;42.266;24.944;2022-11-12T04:23:13;5.40;;;4.90;;
7375;SDS011;3728;42.266;24.944;2022-11-12T04:25:59;7.47;;;4.83;;
7375;SDS011;3728;42.266;24.944;2022-11-12T04:29:03;8.43;;;5.57;;
7375;SDS011;3728;42.266;24.944;2022-11-12T04:32:08;6.27;;;5.33;;
7375;SDS011;3728;42.266;24.944;2022-11-12T04:34:55;7.10;;;5.80;;
7375;SDS011;3728;42.266;24.944;2022-11-12T04:37:41;6.00;;;5.40;;
7375;SDS011;3728;42.266;24.944;2022-11-12T04:40:30;7.47;;;5.37;;
7375;SDS011;3728;42.266;24.944;2022-11-12T04:43:34;5.27;;;4.77;;
7375;SDS011;3728;42.266;24.944;2022-11-12T04:46:39;5.63;;;4.93;;
7375;SDS011;3728;42.266;24.944;2022-11-12T04:49:27;6.13;;;5.53;;
7375;SDS011;3728;42.266;24.944;2022-11-12T04:52:13;5.70;;;5.20;;
7375;SDS011;3728;42.266;24.944;2022-11-12T04:54:59;6.03;;;5.30;;
7375;SDS011;3728;42.266;24.944;2022-11-12T04:57:45;6.07;;;5.47;;
7375;SDS011;3728;42.266;24.944;2022-11-12T05:00:31;8.67;;;5.00;;
7375;SDS011;3728;42.266;24.944;2022-11-12T05:03:18;6.70;;;5.27;;
7375;SDS011;3728;42.266;24.944;2022-11-12T05:06:05;7.80;;;5.90;;
7375;SDS011;3728;42.266;24.944;2022-11-12T05:09:10;7.50;;;5.70;;
7375;SDS011;3728;42.266;24.944;2022-11-12T05:11:56;6.83;;;6.13;;
7375;SDS011;3728;42.266;24.944;2022-11-12T05:14:42;7.23;;;6.30;;
7375;SDS011;3728;42.266;24.944;2022-11-12T05:17:28;9.53;;;6.43;;
7375;SDS011;3728;42.266;24.944;2022-11-12T05:20:14;11.30;;;7.40;;
7375;SDS011;3728;42.266;24.944;2022-11-12T05:23:01;16.37;;;7.57;;
7375;SDS011;3728;42.266;24.944;2022-11-12T05:25:51;8.60;;;6.27;;
7375;SDS011;3728;42.266;24.944;2022-11-12T05:28:37;12.97;;;8.43;;
7375;SDS011;3728;42.266;24.944;2022-11-12T05:31:23;11.53;;;8.60;;
7375;SDS011;3728;42.266;24.944;2022-11-12T05:34:10;13.47;;;8.30;;
7375;SDS011;3728;42.266;24.944;2022-11-12T05:36:56;10.30;;;7.40;;
7375;SDS011;3728;42.266;24.944;2022-11-12T05:39:44;10.17;;;6.87;;
7375;SDS011;3728;42.266;24.944;2022-11-12T05:42:30;8.30;;;6.70;;
7375;SDS011;3728;42.266;24.944;2022-11-12T05:45:15;8.20;;;6.50;;
7375;SDS011;3728;42.266;24.944;2022-11-12T05:48:01;8.83;;;6.40;;
7375;SDS011;3728;42.266;24.944;2022-11-12T05:50:50;10.07;;;7.10;;
7375;SDS011;3728;42.266;24.944;2022-11-12T05:53:58;123.73;;;86.57;;
7375;SDS011;3728;42.266;24.944;2022-11-12T05:56:44;13.90;;;9.93;;
7375;SDS011;3728;42.266;24.944;2022-11-12T05:59:31;7.97;;;6.00;;
7375;SDS011;3728;42.266;24.944;2022-11-12T06:02:16;6.63;;;5.50;;
7375;SDS011;3728;42.266;24.944;2022-11-12T06:05:03;8.10;;;5.83;;
7375;SDS011;3728;42.266;24.944;2022-11-12T06:07:49;8.37;;;5.50;;
7375;SDS011;3728;42.266;24.944;2022-11-12T06:10:35;7.73;;;5.33;;
7375;SDS011;3728;42.266;24.944;2022-11-12T06:13:22;7.13;;;5.70;;
7375;SDS011;3728;42.266;24.944;2022-11-12T06:16:09;14.73;;;8.30;;
7375;SDS011;3728;42.266;24.944;2022-11-12T06:18:55;7.90;;;6.57;;
7375;SDS011;3728;42.266;24.944;2022-11-12T06:21:41;9.07;;;5.57;;
7375;SDS011;3728;42.266;24.944;2022-11-12T06:24:28;6.47;;;5.10;;
7375;SDS011;3728;42.266;24.944;2022-11-12T06:27:19;11.37;;;5.23;;
7375;SDS011;3728;42.266;24.944;2022-11-12T06:30:05;8.67;;;5.57;;
7375;SDS011;3728;42.266;24.944;2022-11-12T06:32:53;11.17;;;7.57;;
7375;SDS011;3728;42.266;24.944;2022-11-12T06:35:39;10.17;;;7.40;;
7375;SDS011;3728;42.266;24.944;2022-11-12T06:38:27;10.03;;;7.93;;
7375;SDS011;3728;42.266;24.944;2022-11-12T06:41:20;12.77;;;8.10;;
7375;SDS011;3728;42.266;24.944;2022-11-12T06:44:06;9.13;;;7.30;;
7375;SDS011;3728;42.266;24.944;2022-11-12T06:46:52;10.27;;;7.23;;
7375;SDS011;3728;42.266;24.944;2022-11-12T06:49:38;22.37;;;8.37;;
7375;SDS011;3728;42.266;24.944;2022-11-12T06:52:24;10.27;;;8.97;;
7375;SDS011;3728;42.266;24.944;2022-11-12T06:55:10;12.63;;;6.83;;
7375;SDS011;3728;42.266;24.944;2022-11-12T06:57:56;9.30;;;6.70;;
7375;SDS011;3728;42.266;24.944;2022-11-12T07:00:42;11.30;;;6.80;;
7375;SDS011;3728;42.266;24.944;2022-11-12T07:03:29;12.23;;;6.53;;
7375;SDS011;3728;42.266;24.944;2022-11-12T07:06:15;11.60;;;7.63;;
7375;SDS011;3728;42.266;24.944;2022-11-12T07:09:04;11.73;;;8.60;;
7375;SDS011;3728;42.266;24.944;2022-11-12T07:11:50;9.77;;;7.27;;
7375;SDS011;3728;42.266;24.944;2022-11-12T07:14:36;14.30;;;9.60;;
7375;SDS011;3728;42.266;24.944;2022-11-12T07:17:22;15.17;;;10.97;;
7375;SDS011;3728;42.266;24.944;2022-11-12T07:20:09;12.63;;;9.60;;
7375;SDS011;3728;42.266;24.944;2022-11-12T07:22:58;9.50;;;8.37;;
7375;SDS011;3728;42.266;24.944;2022-11-12T07:25:45;11.07;;;8.70;;
7375;SDS011;3728;42.266;24.944;2022-11-12T07:28:31;12.20;;;9.00;;
7375;SDS011;3728;42.266;24.944;2022-11-12T07:31:18;15.07;;;8.83;;
7375;SDS011;3728;42.266;24.944;2022-11-12T07:34:05;15.70;;;10.47;;
7375;SDS011;3728;42.266;24.944;2022-11-12T07:36:51;14.17;;;9.10;;
7375;SDS011;3728;42.266;24.944;2022-11-12T07:39:36;11.17;;;8.57;;
7375;SDS011;3728;42.266;24.944;2022-11-12T07:42:23;12.67;;;8.93;;
7375;SDS011;3728;42.266;24.944;2022-11-12T07:45:09;12.77;;;8.97;;
7375;SDS011;3728;42.266;24.944;2022-11-12T07:47:58;11.63;;;7.90;;
7375;SDS011;3728;42.266;24.944;2022-11-12T07:50:44;12.73;;;10.10;;
7375;SDS011;3728;42.266;24.944;2022-11-12T07:53:30;15.97;;;11.77;;
7375;SDS011;3728;42.266;24.944;2022-11-12T07:56:19;15.93;;;13.57;;
7375;SDS011;3728;42.266;24.944;2022-11-12T07:59:07;18.13;;;16.33;;
7375;SDS011;3728;42.266;24.944;2022-11-12T08:01:53;13.53;;;9.57;;
7375;SDS011;3728;42.266;24.944;2022-11-12T08:04:39;7.47;;;6.60;;
7375;SDS011;3728;42.266;24.944;2022-11-12T08:07:25;6.77;;;6.13;;
7375;SDS011;3728;42.266;24.944;2022-11-12T08:10:11;11.07;;;6.57;;
7375;SDS011;3728;42.266;24.944;2022-11-12T08:12:57;9.30;;;7.80;;
7375;SDS011;3728;42.266;24.944;2022-11-12T08:15:44;9.60;;;8.03;;
7375;SDS011;3728;42.266;24.944;2022-11-12T08:18:36;11.90;;;7.37;;
7375;SDS011;3728;42.266;24.944;2022-11-12T08:21:22;10.63;;;7.60;;
7375;SDS011;3728;42.266;24.944;2022-11-12T08:24:09;8.27;;;7.07;;
7375;SDS011;3728;42.266;24.944;2022-11-12T08:26:56;10.63;;;8.03;;
7375;SDS011;3728;42.266;24.944;2022-11-12T08:29:43;9.83;;;8.53;;
7375;SDS011;3728;42.266;24.944;2022-11-12T08:32:29;8.00;;;6.77;;
7375;SDS011;3728;42.266;24.944;2022-11-12T08:35:15;7.27;;;6.40;;
7375;SDS011;3728;42.266;24.944;2022-11-12T08:38:02;8.83;;;7.00;;
7375;SDS011;3728;42.266;24.944;2022-11-12T08:41:18;9.00;;;7.57;;
7375;SDS011;3728;42.266;24.944;2022-11-12T08:44:08;7.40;;;5.27;;
7375;SDS011;3728;42.266;24.944;2022-11-12T08:46:54;8.77;;;7.77;;
7375;SDS011;3728;42.266;24.944;2022-11-12T08:49:40;18.97;;;12.13;;
7375;SDS011;3728;42.266;24.944;2022-11-12T08:52:31;8.40;;;7.50;;
7375;SDS011;3728;42.266;24.944;2022-11-12T08:55:18;5.67;;;5.03;;
7375;SDS011;3728;42.266;24.944;2022-11-12T08:58:05;15.57;;;11.67;;
7375;SDS011;3728;42.266;24.944;2022-11-12T09:00:51;14.83;;;12.40;;
7375;SDS011;3728;42.266;24.944;2022-11-12T09:03:38;18.70;;;13.57;;
7375;SDS011;3728;42.266;24.944;2022-11-12T09:06:24;18.37;;;12.50;;
7375;SDS011;3728;42.266;24.944;2022-11-12T09:09:11;8.83;;;6.57;;
7375;SDS011;3728;42.266;24.944;2022-11-12T09:11:57;10.63;;;9.30;;
7375;SDS011;3728;42.266;24.944;2022-11-12T09:14:50;20.60;;;18.50;;
7375;SDS011;3728;42.266;24.944;2022-11-12T09:17:50;11.67;;;9.83;;
7375;SDS011;3728;42.266;24.944;2022-11-12T09:20:43;14.33;;;11.83;;
7375;SDS011;3728;42.266;24.944;2022-11-12T09:23:29;12.53;;;10.40;;
7375;SDS011;3728;42.266;24.944;2022-11-12T09:26:17;7.57;;;4.70;;
7375;SDS011;3728;42.266;24.944;2022-11-12T09:29:04;8.07;;;5.30;;
7375;SDS011;3728;42.266;24.944;2022-11-12T09:31:50;19.00;;;17.00;;
7375;SDS011;3728;42.266;24.944;2022-11-12T09:34:38;12.47;;;11.27;;
7375;SDS011;3728;42.266;24.944;2022-11-12T09:37:24;4.53;;;4.13;;
7375;SDS011;3728;42.266;24.944;2022-11-12T09:40:14;11.80;;;7.43;;
7375;SDS011;3728;42.266;24.944;2022-11-12T09:43:08;7.77;;;6.40;;
7375;SDS011;3728;42.266;24.944;2022-11-12T09:49:48;9.97;;;8.57;;
7375;SDS011;3728;42.266;24.944;2022-11-12T09:53:03;35.63;;;31.43;;
7375;SDS011;3728;42.266;24.944;2022-11-12T09:56:06;60.10;;;42.07;;
7375;SDS011;3728;42.266;24.944;2022-11-12T09:58:57;49.50;;;33.83;;
7375;SDS011;3728;42.266;24.944;2022-11-12T10:02:35;65.47;;;42.83;;
7375;SDS011;3728;42.266;24.944;2022-11-12T10:05:41;29.20;;;21.40;;
7375;SDS011;3728;42.266;24.944;2022-11-12T10:08:48;16.07;;;12.27;;
7375;SDS011;3728;42.266;24.944;2022-11-12T10:12:11;13.33;;;9.53;;
7375;SDS011;3728;42.266;24.944;2022-11-12T10:15:31;9.23;;;7.83;;
7375;SDS011;3728;42.266;24.944;2022-11-12T10:25:16;11.67;;;9.57;;
7375;SDS011;3728;42.266;24.944;2022-11-12T10:28:11;6.97;;;5.27;;
7375;SDS011;3728;42.266;24.944;2022-11-12T10:31:37;18.13;;;12.07;;
7375;SDS011;3728;42.266;24.944;2022-11-12T10:34:23;18.53;;;12.70;;
7375;SDS011;3728;42.266;24.944;2022-11-12T10:40:40;29.60;;;15.93;;
7375;SDS011;3728;42.266;24.944;2022-11-12T10:43:27;24.27;;;15.07;;
7375;SDS011;3728;42.266;24.944;2022-11-12T10:46:17;19.17;;;11.97;;
7375;SDS011;3728;42.266;24.944;2022-11-12T10:49:24;13.83;;;9.13;;
7375;SDS011;3728;42.266;24.944;2022-11-12T10:52:20;11.20;;;8.13;;
7375;SDS011;3728;42.266;24.944;2022-11-12T10:55:22;11.33;;;8.90;;
7375;SDS011;3728;42.266;24.944;2022-11-12T10:58:20;10.23;;;7.10;;
7375;SDS011;3728;42.266;24.944;2022-11-12T11:01:13;6.97;;;5.80;;
7375;SDS011;3728;42.266;24.944;2022-11-12T11:04:02;6.87;;;5.97;;
7375;SDS011;3728;42.266;24.944;2022-11-12T11:06:56;8.13;;;6.27;;
7375;SDS011;3728;42.266;24.944;2022-11-12T11:10:00;8.37;;;6.07;;
7375;SDS011;3728;42.266;24.944;2022-11-12T11:12:47;5.60;;;4.30;;
7375;SDS011;3728;42.266;24.944;2022-11-12T11:15:34;6.27;;;4.40;;
7375;SDS011;3728;42.266;24.944;2022-11-12T11:18:22;8.43;;;7.27;;
7375;SDS011;3728;42.266;24.944;2022-11-12T11:21:18;7.33;;;6.10;;
7375;SDS011;3728;42.266;24.944;2022-11-12T11:27:41;5.90;;;5.10;;
7375;SDS011;3728;42.266;24.944;2022-11-12T11:30:52;7.17;;;5.83;;
7375;SDS011;3728;42.266;24.944;2022-11-12T11:41:06;48.20;;;29.73;;
7375;SDS011;3728;42.266;24.944;2022-11-12T11:47:43;12.93;;;9.30;;
7375;SDS011;3728;42.266;24.944;2022-11-12T11:51:27;7.70;;;5.57;;
7375;SDS011;3728;42.266;24.944;2022-11-12T12:00:34;21.70;;;11.70;;
7375;SDS011;3728;42.266;24.944;2022-11-12T12:03:59;13.00;;;9.70;;
7375;SDS011;3728;42.266;24.944;2022-11-12T12:14:11;7.80;;;5.73;;
7375;SDS011;3728;42.266;24.944;2022-11-12T12:17:54;6.67;;;5.60;;
7375;SDS011;3728;42.266;24.944;2022-11-12T12:27:36;7.83;;;5.07;;
7375;SDS011;3728;42.266;24.944;2022-11-12T12:30:51;6.17;;;4.67;;
7375;SDS011;3728;42.266;24.944;2022-11-12T12:40:21;5.43;;;4.47;;
7375;SDS011;3728;42.266;24.944;2022-11-12T12:43:22;6.97;;;5.00;;
7375;SDS011;3728;42.266;24.944;2022-11-12T12:46:19;6.33;;;4.93;;
7375;SDS011;3728;42.266;24.944;2022-11-12T12:49:13;7.07;;;5.67;;
7375;SDS011;3728;42.266;24.944;2022-11-12T12:52:04;5.50;;;4.40;;
7375;SDS011;3728;42.266;24.944;2022-11-12T12:54:53;5.63;;;4.03;;
7375;SDS011;3728;42.266;24.944;2022-11-12T12:57:41;7.93;;;4.10;;
7375;SDS011;3728;42.266;24.944;2022-11-12T13:00:34;4.43;;;4.03;;
7375;SDS011;3728;42.266;24.944;2022-11-12T13:06:49;4.20;;;3.70;;
7375;SDS011;3728;42.266;24.944;2022-11-12T13:09:38;7.93;;;5.27;;
7375;SDS011;3728;42.266;24.944;2022-11-12T13:12:59;19.57;;;14.07;;
7375;SDS011;3728;42.266;24.944;2022-11-12T13:15:53;9.73;;;8.07;;
7375;SDS011;3728;42.266;24.944;2022-11-12T13:21:27;8.27;;;6.33;;
7375;SDS011;3728;42.266;24.944;2022-11-12T13:24:14;7.60;;;6.30;;
7375;SDS011;3728;42.266;24.944;2022-11-12T13:27:00;6.83;;;4.83;;
7375;SDS011;3728;42.266;24.944;2022-11-12T13:29:46;6.00;;;4.77;;
7375;SDS011;3728;42.266;24.944;2022-11-12T13:32:36;5.37;;;4.30;;
7375;SDS011;3728;42.266;24.944;2022-11-12T13:35:43;5.83;;;4.60;;
7375;SDS011;3728;42.266;24.944;2022-11-12T13:38:28;9.97;;;7.17;;
7375;SDS011;3728;42.266;24.944;2022-11-12T13:41:21;8.40;;;6.30;;
7375;SDS011;3728;42.266;24.944;2022-11-12T13:44:28;7.03;;;5.30;;
7375;SDS011;3728;42.266;24.944;2022-11-12T13:47:17;10.50;;;6.23;;
7375;SDS011;3728;42.266;24.944;2022-11-12T13:50:09;9.20;;;6.57;;
7375;SDS011;3728;42.266;24.944;2022-11-12T13:53:05;8.90;;;7.43;;
7375;SDS011;3728;42.266;24.944;2022-11-12T13:55:53;18.93;;;16.93;;
7375;SDS011;3728;42.266;24.944;2022-11-12T13:58:40;29.50;;;25.97;;
7375;SDS011;3728;42.266;24.944;2022-11-12T14:01:27;44.80;;;31.00;;
7375;SDS011;3728;42.266;24.944;2022-11-12T14:04:15;44.17;;;37.43;;
7375;SDS011;3728;42.266;24.944;2022-11-12T14:07:24;18.43;;;14.67;;
7375;SDS011;3728;42.266;24.944;2022-11-12T14:20:40;12.83;;;9.13;;
7375;SDS011;3728;42.266;24.944;2022-11-12T14:23:27;10.37;;;8.10;;
7375;SDS011;3728;42.266;24.944;2022-11-12T14:26:31;12.27;;;8.13;;
7375;SDS011;3728;42.266;24.944;2022-11-12T14:29:18;8.03;;;7.00;;
7375;SDS011;3728;42.266;24.944;2022-11-12T14:32:07;12.63;;;9.80;;
7375;SDS011;3728;42.266;24.944;2022-11-12T14:34:53;10.37;;;7.90;;
7375;SDS011;3728;42.266;24.944;2022-11-12T14:37:39;11.10;;;8.20;;
7375;SDS011;3728;42.266;24.944;2022-11-12T14:44:04;14.43;;;10.93;;
7375;SDS011;3728;42.266;24.944;2022-11-12T14:46:57;17.93;;;14.33;;
7375;SDS011;3728;42.266;24.944;2022-11-12T14:49:45;26.70;;;18.63;;
7375;SDS011;3728;42.266;24.944;2022-11-12T14:52:36;17.67;;;14.00;;
7375;SDS011;3728;42.266;24.944;2022-11-12T14:55:29;17.53;;;12.77;;
7375;SDS011;3728;42.266;24.944;2022-11-12T14:58:19;14.17;;;11.17;;
7375;SDS011;3728;42.266;24.944;2022-11-12T15:01:22;15.10;;;11.10;;
7375;SDS011;3728;42.266;24.944;2022-11-12T15:04:51;30.50;;;21.07;;
7375;SDS011;3728;42.266;24.944;2022-11-12T15:07:57;66.87;;;38.63;;
7375;SDS011;3728;42.266;24.944;2022-11-12T15:10:55;46.63;;;32.83;;
7375;SDS011;3728;42.266;24.944;2022-11-12T15:14:05;37.43;;;30.13;;
7375;SDS011;3728;42.266;24.944;2022-11-12T15:17:05;32.07;;;24.47;;
7375;SDS011;3728;42.266;24.944;2022-11-12T15:20:14;30.73;;;20.37;;
7375;SDS011;3728;42.266;24.944;2022-11-12T15:23:02;19.90;;;15.07;;
7375;SDS011;3728;42.266;24.944;2022-11-12T15:25:58;17.77;;;12.43;;
7375;SDS011;3728;42.266;24.944;2022-11-12T15:28:59;17.07;;;11.23;;
7375;SDS011;3728;42.266;24.944;2022-11-12T15:34:58;19.60;;;16.00;;
7375;SDS011;3728;42.266;24.944;2022-11-12T15:38:31;20.30;;;14.50;;
7375;SDS011;3728;42.266;24.944;2022-11-12T15:41:24;154.77;;;66.97;;
7375;SDS011;3728;42.266;24.944;2022-11-12T15:44:13;38.90;;;26.37;;
7375;SDS011;3728;42.266;24.944;2022-11-12T15:47:00;36.17;;;19.60;;
7375;SDS011;3728;42.266;24.944;2022-11-12T15:49:51;36.07;;;18.60;;
7375;SDS011;3728;42.266;24.944;2022-11-12T15:52:44;38.30;;;21.47;;
7375;SDS011;3728;42.266;24.944;2022-11-12T15:55:30;42.03;;;25.10;;
7375;SDS011;3728;42.266;24.944;2022-11-12T15:58:19;36.87;;;22.37;;
7375;SDS011;3728;42.266;24.944;2022-11-12T16:01:16;31.37;;;17.60;;
7375;SDS011;3728;42.266;24.944;2022-11-12T16:04:02;41.57;;;22.60;;
7375;SDS011;3728;42.266;24.944;2022-11-12T16:06:48;72.20;;;41.87;;
7375;SDS011;3728;42.266;24.944;2022-11-12T16:09:56;41.10;;;24.73;;
7375;SDS011;3728;42.266;24.944;2022-11-12T16:12:42;17.83;;;10.60;;
7375;SDS011;3728;42.266;24.944;2022-11-12T16:15:29;17.20;;;11.03;;
7375;SDS011;3728;42.266;24.944;2022-11-12T16:18:17;15.57;;;11.90;;
7375;SDS011;3728;42.266;24.944;2022-11-12T16:21:04;31.53;;;23.07;;
7375;SDS011;3728;42.266;24.944;2022-11-12T16:23:50;28.33;;;21.10;;
7375;SDS011;3728;42.266;24.944;2022-11-12T16:26:37;33.60;;;25.40;;
7375;SDS011;3728;42.266;24.944;2022-11-12T16:29:24;17.40;;;11.43;;
7375;SDS011;3728;42.266;24.944;2022-11-12T16:32:13;26.77;;;22.83;;
7375;SDS011;3728;42.266;24.944;2022-11-12T16:34:59;25.87;;;22.73;;
7375;SDS011;3728;42.266;24.944;2022-11-12T16:37:45;16.20;;;12.53;;
7375;SDS011;3728;42.266;24.944;2022-11-12T16:40:32;22.20;;;16.90;;
7375;SDS011;3728;42.266;24.944;2022-11-12T16:43:18;22.40;;;19.70;;
7375;SDS011;3728;42.266;24.944;2022-11-12T16:46:05;27.47;;;23.83;;
7375;SDS011;3728;42.266;24.944;2022-11-12T16:49:02;25.47;;;18.83;;
7375;SDS011;3728;42.266;24.944;2022-11-12T16:51:50;22.07;;;17.63;;
7375;SDS011;3728;42.266;24.944;2022-11-12T16:54:38;22.17;;;15.43;;
7375;SDS011;3728;42.266;24.944;2022-11-12T16:57:24;15.67;;;12.50;;
7375;SDS011;3728;42.266;24.944;2022-11-12T17:00:11;18.13;;;13.20;;
7375;SDS011;3728;42.266;24.944;2022-11-12T17:03:01;52.10;;;31.00;;
7375;SDS011;3728;42.266;24.944;2022-11-12T17:05:50;84.63;;;48.53;;
7375;SDS011;3728;42.266;24.944;2022-11-12T17:08:36;42.37;;;29.03;;
7375;SDS011;3728;42.266;24.944;2022-11-12T17:11:23;96.57;;;53.90;;
7375;SDS011;3728;42.266;24.944;2022-11-12T17:14:10;66.00;;;41.33;;
7375;SDS011;3728;42.266;24.944;2022-11-12T17:16:56;78.27;;;48.53;;
7375;SDS011;3728;42.266;24.944;2022-11-12T17:19:42;79.73;;;50.60;;
7375;SDS011;3728;42.266;24.944;2022-11-12T17:22:28;57.77;;;39.03;;
7375;SDS011;3728;42.266;24.944;2022-11-12T17:25:16;60.70;;;39.17;;
7375;SDS011;3728;42.266;24.944;2022-11-12T17:28:02;80.93;;;48.77;;
7375;SDS011;3728;42.266;24.944;2022-11-12T17:30:49;29.03;;;19.93;;
7375;SDS011;3728;42.266;24.944;2022-11-12T17:33:37;37.40;;;25.97;;
7375;SDS011;3728;42.266;24.944;2022-11-12T17:36:34;32.33;;;21.43;;
7375;SDS011;3728;42.266;24.944;2022-11-12T17:39:27;38.77;;;25.13;;
7375;SDS011;3728;42.266;24.944;2022-11-12T17:42:13;42.77;;;29.40;;
7375;SDS011;3728;42.266;24.944;2022-11-12T17:45:00;28.60;;;19.97;;
7375;SDS011;3728;42.266;24.944;2022-11-12T17:47:48;28.73;;;19.73;;
7375;SDS011;3728;42.266;24.944;2022-11-12T17:50:38;15.83;;;12.37;;
7375;SDS011;3728;42.266;24.944;2022-11-12T17:53:23;17.50;;;12.07;;
7375;SDS011;3728;42.266;24.944;2022-11-12T17:56:12;8.70;;;6.73;;
7375;SDS011;3728;42.266;24.944;2022-11-12T17:59:05;5.50;;;4.90;;
7375;SDS011;3728;42.266;24.944;2022-11-12T18:01:51;6.30;;;5.13;;
7375;SDS011;3728;42.266;24.944;2022-11-12T18:04:38;7.40;;;5.30;;
7375;SDS011;3728;42.266;24.944;2022-11-12T18:07:27;13.73;;;8.93;;
7375;SDS011;3728;42.266;24.944;2022-11-12T18:10:16;18.33;;;12.37;;
7375;SDS011;3728;42.266;24.944;2022-11-12T18:13:04;14.37;;;10.87;;
7375;SDS011;3728;42.266;24.944;2022-11-12T18:15:50;12.27;;;9.37;;
7375;SDS011;3728;42.266;24.944;2022-11-12T18:18:36;14.40;;;11.07;;
7375;SDS011;3728;42.266;24.944;2022-11-12T18:21:22;11.83;;;8.57;;
7375;SDS011;3728;42.266;24.944;2022-11-12T18:24:11;13.27;;;9.80;;
7375;SDS011;3728;42.266;24.944;2022-11-12T18:26:59;21.10;;;14.83;;
7375;SDS011;3728;42.266;24.944;2022-11-12T18:29:45;29.03;;;18.63;;